메인 페이지
METAR-TAF:

METAR-TAF

공항 :

다마스쿠스 국제공항

다마스쿠스, 시리아

위도: 33-25N, 경도: 036-31E, 고도: 608m

현재 날씨관측

예보는 43분 전, 13:00시(UTC)에 발표되었습니다.
남남서18kt
온도 36°C
습도 17%
기압 1006 hPa
시정 10km 이상
1500m 미만 상공 구름 및 적란운 없음

METAR: OSDI 141300Z 20018KT CAVOK 36/07 Q1006

시각: 16:43 (13:43 UTC)

예보

예보는 2 시간 43분 전, 11:00시(UTC)에 발표되었습니다.
예보 대상 시간: 14일 12시부터 15일 18시까지 (UTC)
서남서15kt, 순간 최대 풍속 25kt
시정 10km 이상
고도 3000ft 상공 구름 조금
일시적
15일 00시부터 15일 08시까지 (UTC)
남남서15kt
시정 10km 이상
1500m 미만 상공 구름 및 적란운 없음

TAF: OSDI 141100Z 1412/1518 25015G25KT 9999 FEW030 TEMPO 1500/1508 20015KT CAVOK

4,000개 이상의 공항 관측 자료 및 예보 (METAR 및 TAF 보고).

지도상에서 검색 가능한 기상관측소가 노란 점과 빨간 점으로 표시되어 있습니다.

기상관측소 명을 보려면 표시 위로 마우스를 이동하세요.

날씨 관측과 예보를 보려면 클릭하세요.

지도 변경 : 확대하려면 엑스 표시가 있는 녹색 버튼, 축소하려면 빼기 표시가 있는 녹색 버튼, 다음 페이지의 지도를 보려면 녹색 화살표를 클릭하세요.


METAR-TAF: